sensor_id;sensor_type;location;lat;lon;timestamp;temperature;humidity
35920;DHT22;36160;53.370;-6.196;2023-02-01T00:01:49;6.70;99.90
35920;DHT22;36160;53.370;-6.196;2023-02-01T00:04:15;6.70;99.90
35920;DHT22;36160;53.370;-6.196;2023-02-01T00:06:42;6.70;99.90
35920;DHT22;36160;53.370;-6.196;2023-02-01T00:09:07;6.70;99.90
35920;DHT22;36160;53.370;-6.196;2023-02-01T00:11:34;6.80;99.90
35920;DHT22;36160;53.370;-6.196;2023-02-01T00:13:59;6.70;99.90
35920;DHT22;36160;53.370;-6.196;2023-02-01T00:16:28;6.70;99.90
35920;DHT22;36160;53.370;-6.196;2023-02-01T00:19:02;6.60;99.90
35920;DHT22;36160;53.370;-6.196;2023-02-01T00:21:29;6.60;99.90
35920;DHT22;36160;53.370;-6.196;2023-02-01T00:23:55;6.70;99.90
35920;DHT22;36160;53.370;-6.196;2023-02-01T00:26:33;6.60;99.90
35920;DHT22;36160;53.370;-6.196;2023-02-01T00:29:00;6.60;99.90
35920;DHT22;36160;53.370;-6.196;2023-02-01T00:31:25;6.60;99.90
35920;DHT22;36160;53.370;-6.196;2023-02-01T00:33:51;6.60;99.90
35920;DHT22;36160;53.370;-6.196;2023-02-01T00:36:17;6.60;99.90
35920;DHT22;36160;53.370;-6.196;2023-02-01T00:38:43;6.60;99.90
35920;DHT22;36160;53.370;-6.196;2023-02-01T00:41:14;6.70;99.90
35920;DHT22;36160;53.370;-6.196;2023-02-01T00:43:41;6.60;99.90
35920;DHT22;36160;53.370;-6.196;2023-02-01T00:46:08;6.70;99.90
35920;DHT22;36160;53.370;-6.196;2023-02-01T00:48:34;6.70;99.90
35920;DHT22;36160;53.370;-6.196;2023-02-01T00:51:07;6.70;99.90
35920;DHT22;36160;53.370;-6.196;2023-02-01T00:53:33;6.70;99.90
35920;DHT22;36160;53.370;-6.196;2023-02-01T00:55:59;6.60;99.90
35920;DHT22;36160;53.370;-6.196;2023-02-01T00:58:26;6.70;99.90
35920;DHT22;36160;53.370;-6.196;2023-02-01T01:01:08;6.70;99.90
35920;DHT22;36160;53.370;-6.196;2023-02-01T01:03:37;6.70;99.90
35920;DHT22;36160;53.370;-6.196;2023-02-01T01:06:09;6.70;99.90
35920;DHT22;36160;53.370;-6.196;2023-02-01T01:08:35;6.70;99.90
35920;DHT22;36160;53.370;-6.196;2023-02-01T01:11:12;6.60;99.90
35920;DHT22;36160;53.370;-6.196;2023-02-01T01:13:38;6.70;99.90
35920;DHT22;36160;53.370;-6.196;2023-02-01T01:16:06;6.60;99.90
35920;DHT22;36160;53.370;-6.196;2023-02-01T01:18:33;6.70;99.90
35920;DHT22;36160;53.370;-6.196;2023-02-01T01:20:59;6.60;99.90
35920;DHT22;36160;53.370;-6.196;2023-02-01T01:23:25;6.70;99.90
35920;DHT22;36160;53.370;-6.196;2023-02-01T01:25:51;6.60;99.90
35920;DHT22;36160;53.370;-6.196;2023-02-01T01:28:17;6.60;99.90
35920;DHT22;36160;53.370;-6.196;2023-02-01T01:30:42;6.60;99.90
35920;DHT22;36160;53.370;-6.196;2023-02-01T01:33:09;6.60;99.90
35920;DHT22;36160;53.370;-6.196;2023-02-01T01:35:35;6.60;99.90
35920;DHT22;36160;53.370;-6.196;2023-02-01T01:38:01;6.60;99.90
35920;DHT22;36160;53.370;-6.196;2023-02-01T01:40:28;6.60;99.90
35920;DHT22;36160;53.370;-6.196;2023-02-01T01:42:53;6.60;99.90
35920;DHT22;36160;53.370;-6.196;2023-02-01T01:47:49;6.60;99.90
35920;DHT22;36160;53.370;-6.196;2023-02-01T01:50:23;6.60;99.90
35920;DHT22;36160;53.370;-6.196;2023-02-01T01:52:50;6.70;99.90
35920;DHT22;36160;53.370;-6.196;2023-02-01T01:55:19;6.70;99.90
35920;DHT22;36160;53.370;-6.196;2023-02-01T01:57:51;6.60;99.90
35920;DHT22;36160;53.370;-6.196;2023-02-01T02:00:20;6.60;99.90
35920;DHT22;36160;53.370;-6.196;2023-02-01T02:02:57;6.70;99.90
35920;DHT22;36160;53.370;-6.196;2023-02-01T02:05:24;6.60;99.90
35920;DHT22;36160;53.370;-6.196;2023-02-01T02:07:51;6.60;99.90
35920;DHT22;36160;53.370;-6.196;2023-02-01T02:10:18;6.60;99.90
35920;DHT22;36160;53.370;-6.196;2023-02-01T02:12:46;6.60;99.90
35920;DHT22;36160;53.370;-6.196;2023-02-01T02:15:14;6.60;99.90
35920;DHT22;36160;53.370;-6.196;2023-02-01T02:17:57;6.60;99.90
35920;DHT22;36160;53.370;-6.196;2023-02-01T02:20:50;6.60;99.90
35920;DHT22;36160;53.370;-6.196;2023-02-01T02:37:43;6.50;99.90
35920;DHT22;36160;53.370;-6.196;2023-02-01T02:40:32;6.50;99.90
35920;DHT22;36160;53.370;-6.196;2023-02-01T02:43:25;6.50;99.90
35920;DHT22;36160;53.370;-6.196;2023-02-01T02:46:48;6.60;99.90
35920;DHT22;36160;53.370;-6.196;2023-02-01T02:49:44;6.60;99.90
35920;DHT22;36160;53.370;-6.196;2023-02-01T02:52:37;6.60;99.90
35920;DHT22;36160;53.370;-6.196;2023-02-01T02:55:26;6.60;99.90
35920;DHT22;36160;53.370;-6.196;2023-02-01T02:57:52;6.60;99.90
35920;DHT22;36160;53.370;-6.196;2023-02-01T03:00:37;6.60;99.90
35920;DHT22;36160;53.370;-6.196;2023-02-01T03:03:21;6.60;99.90
35920;DHT22;36160;53.370;-6.196;2023-02-01T03:06:13;6.70;99.90
35920;DHT22;36160;53.370;-6.196;2023-02-01T03:08:41;6.60;99.90
35920;DHT22;36160;53.370;-6.196;2023-02-01T03:11:14;6.60;99.90
35920;DHT22;36160;53.370;-6.196;2023-02-01T03:13:58;6.60;99.90
35920;DHT22;36160;53.370;-6.196;2023-02-01T03:16:32;6.60;99.90
35920;DHT22;36160;53.370;-6.196;2023-02-01T03:19:23;6.70;99.90
35920;DHT22;36160;53.370;-6.196;2023-02-01T03:22:00;6.60;99.90
35920;DHT22;36160;53.370;-6.196;2023-02-01T03:24:29;6.60;99.90
35920;DHT22;36160;53.370;-6.196;2023-02-01T03:27:13;6.70;99.90
35920;DHT22;36160;53.370;-6.196;2023-02-01T03:29:59;6.70;99.90
35920;DHT22;36160;53.370;-6.196;2023-02-01T03:32:27;6.70;99.90
35920;DHT22;36160;53.370;-6.196;2023-02-01T03:34:53;6.60;99.90
35920;DHT22;36160;53.370;-6.196;2023-02-01T03:37:24;6.70;99.90
35920;DHT22;36160;53.370;-6.196;2023-02-01T03:39:55;6.70;99.90
35920;DHT22;36160;53.370;-6.196;2023-02-01T03:42:29;6.70;99.90
35920;DHT22;36160;53.370;-6.196;2023-02-01T03:45:17;6.70;99.90
35920;DHT22;36160;53.370;-6.196;2023-02-01T03:47:48;6.70;99.90
35920;DHT22;36160;53.370;-6.196;2023-02-01T03:50:17;6.60;99.90
35920;DHT22;36160;53.370;-6.196;2023-02-01T03:52:48;6.60;99.90
35920;DHT22;36160;53.370;-6.196;2023-02-01T03:55:17;6.60;99.90
35920;DHT22;36160;53.370;-6.196;2023-02-01T03:57:52;6.60;99.90
35920;DHT22;36160;53.370;-6.196;2023-02-01T04:00:22;6.60;99.90
35920;DHT22;36160;53.370;-6.196;2023-02-01T04:02:48;6.60;99.90
35920;DHT22;36160;53.370;-6.196;2023-02-01T04:05:13;6.60;99.90
35920;DHT22;36160;53.370;-6.196;2023-02-01T04:07:39;6.60;99.90
35920;DHT22;36160;53.370;-6.196;2023-02-01T04:10:05;6.70;99.90
35920;DHT22;36160;53.370;-6.196;2023-02-01T04:12:31;6.70;99.90
35920;DHT22;36160;53.370;-6.196;2023-02-01T04:14:57;6.60;99.90
35920;DHT22;36160;53.370;-6.196;2023-02-01T04:17:23;6.60;99.90
35920;DHT22;36160;53.370;-6.196;2023-02-01T04:19:49;6.60;99.90
35920;DHT22;36160;53.370;-6.196;2023-02-01T04:22:15;6.60;99.90
35920;DHT22;36160;53.370;-6.196;2023-02-01T04:24:41;6.70;99.90
35920;DHT22;36160;53.370;-6.196;2023-02-01T04:27:06;6.80;99.90
35920;DHT22;36160;53.370;-6.196;2023-02-01T04:29:32;6.70;99.90
35920;DHT22;36160;53.370;-6.196;2023-02-01T04:31:57;6.80;99.90
35920;DHT22;36160;53.370;-6.196;2023-02-01T04:34:23;6.80;99.90
35920;DHT22;36160;53.370;-6.196;2023-02-01T04:36:50;6.80;99.90
35920;DHT22;36160;53.370;-6.196;2023-02-01T04:39:16;6.80;99.90
35920;DHT22;36160;53.370;-6.196;2023-02-01T04:41:42;6.80;99.90
35920;DHT22;36160;53.370;-6.196;2023-02-01T04:44:14;6.80;99.90
35920;DHT22;36160;53.370;-6.196;2023-02-01T04:46:40;6.90;99.90
35920;DHT22;36160;53.370;-6.196;2023-02-01T04:49:05;6.90;99.90
35920;DHT22;36160;53.370;-6.196;2023-02-01T04:51:31;6.90;99.90
35920;DHT22;36160;53.370;-6.196;2023-02-01T04:53:57;7.00;99.90
35920;DHT22;36160;53.370;-6.196;2023-02-01T04:56:23;7.00;99.90
35920;DHT22;36160;53.370;-6.196;2023-02-01T04:58:49;7.00;99.90
35920;DHT22;36160;53.370;-6.196;2023-02-01T05:01:14;6.90;99.90
35920;DHT22;36160;53.370;-6.196;2023-02-01T05:03:40;6.90;99.90
35920;DHT22;36160;53.370;-6.196;2023-02-01T05:06:05;6.90;99.90
35920;DHT22;36160;53.370;-6.196;2023-02-01T05:08:32;6.90;99.90
35920;DHT22;36160;53.370;-6.196;2023-02-01T05:10:57;6.90;99.90
35920;DHT22;36160;53.370;-6.196;2023-02-01T05:13:24;6.90;99.90
35920;DHT22;36160;53.370;-6.196;2023-02-01T05:16:09;6.90;99.90
35920;DHT22;36160;53.370;-6.196;2023-02-01T05:18:34;6.90;99.90
35920;DHT22;36160;53.370;-6.196;2023-02-01T05:21:00;6.90;99.90
35920;DHT22;36160;53.370;-6.196;2023-02-01T05:23:27;6.90;99.90
35920;DHT22;36160;53.370;-6.196;2023-02-01T05:25:57;6.90;99.90
35920;DHT22;36160;53.370;-6.196;2023-02-01T05:28:23;6.90;99.90
35920;DHT22;36160;53.370;-6.196;2023-02-01T05:30:48;6.90;99.90
35920;DHT22;36160;53.370;-6.196;2023-02-01T05:33:14;6.90;99.90
35920;DHT22;36160;53.370;-6.196;2023-02-01T05:35:39;7.00;99.90
35920;DHT22;36160;53.370;-6.196;2023-02-01T05:38:05;6.90;99.90
35920;DHT22;36160;53.370;-6.196;2023-02-01T05:40:31;6.90;99.90
35920;DHT22;36160;53.370;-6.196;2023-02-01T05:42:56;6.90;99.90
35920;DHT22;36160;53.370;-6.196;2023-02-01T05:45:22;6.90;99.90
35920;DHT22;36160;53.370;-6.196;2023-02-01T05:47:48;6.90;99.90
35920;DHT22;36160;53.370;-6.196;2023-02-01T05:50:13;6.90;99.90
35920;DHT22;36160;53.370;-6.196;2023-02-01T05:52:39;6.90;99.90
35920;DHT22;36160;53.370;-6.196;2023-02-01T05:55:05;6.90;99.90
35920;DHT22;36160;53.370;-6.196;2023-02-01T05:57:31;6.90;99.90
35920;DHT22;36160;53.370;-6.196;2023-02-01T05:59:57;7.00;99.90
35920;DHT22;36160;53.370;-6.196;2023-02-01T06:02:22;7.00;99.90
35920;DHT22;36160;53.370;-6.196;2023-02-01T06:04:50;7.00;99.90
35920;DHT22;36160;53.370;-6.196;2023-02-01T06:07:15;7.00;99.90
35920;DHT22;36160;53.370;-6.196;2023-02-01T06:09:41;6.90;99.90
35920;DHT22;36160;53.370;-6.196;2023-02-01T06:12:07;7.00;99.90
35920;DHT22;36160;53.370;-6.196;2023-02-01T06:14:33;6.90;99.90
35920;DHT22;36160;53.370;-6.196;2023-02-01T06:16:59;7.00;99.90
35920;DHT22;36160;53.370;-6.196;2023-02-01T06:19:25;7.00;99.90
35920;DHT22;36160;53.370;-6.196;2023-02-01T06:21:51;7.00;99.90
35920;DHT22;36160;53.370;-6.196;2023-02-01T06:24:16;6.90;99.90
35920;DHT22;36160;53.370;-6.196;2023-02-01T06:26:42;6.90;99.90
35920;DHT22;36160;53.370;-6.196;2023-02-01T06:29:12;7.00;99.90
35920;DHT22;36160;53.370;-6.196;2023-02-01T06:31:38;7.00;99.90
35920;DHT22;36160;53.370;-6.196;2023-02-01T06:34:03;7.00;99.90
35920;DHT22;36160;53.370;-6.196;2023-02-01T06:36:29;7.00;99.90
35920;DHT22;36160;53.370;-6.196;2023-02-01T06:38:58;7.00;99.90
35920;DHT22;36160;53.370;-6.196;2023-02-01T06:41:25;6.90;99.90
35920;DHT22;36160;53.370;-6.196;2023-02-01T06:43:51;7.00;99.90
35920;DHT22;36160;53.370;-6.196;2023-02-01T06:46:16;7.00;99.90
35920;DHT22;36160;53.370;-6.196;2023-02-01T06:48:42;7.00;99.90
35920;DHT22;36160;53.370;-6.196;2023-02-01T06:51:25;7.00;99.90
35920;DHT22;36160;53.370;-6.196;2023-02-01T06:53:52;7.00;99.90
35920;DHT22;36160;53.370;-6.196;2023-02-01T06:56:18;7.00;99.90
35920;DHT22;36160;53.370;-6.196;2023-02-01T06:58:44;7.10;99.90
35920;DHT22;36160;53.370;-6.196;2023-02-01T07:01:10;7.00;99.90
35920;DHT22;36160;53.370;-6.196;2023-02-01T07:03:37;7.10;99.90
35920;DHT22;36160;53.370;-6.196;2023-02-01T07:06:03;7.10;99.90
35920;DHT22;36160;53.370;-6.196;2023-02-01T07:08:31;7.10;99.90
35920;DHT22;36160;53.370;-6.196;2023-02-01T07:11:00;7.10;99.90
35920;DHT22;36160;53.370;-6.196;2023-02-01T07:13:26;7.10;99.90
35920;DHT22;36160;53.370;-6.196;2023-02-01T07:15:52;7.10;99.90
35920;DHT22;36160;53.370;-6.196;2023-02-01T07:18:17;7.10;99.90
35920;DHT22;36160;53.370;-6.196;2023-02-01T07:20:43;7.20;99.90
35920;DHT22;36160;53.370;-6.196;2023-02-01T07:23:14;7.20;99.90
35920;DHT22;36160;53.370;-6.196;2023-02-01T07:25:40;7.20;99.90
35920;DHT22;36160;53.370;-6.196;2023-02-01T07:28:05;7.20;99.90
35920;DHT22;36160;53.370;-6.196;2023-02-01T07:30:31;7.20;99.90
35920;DHT22;36160;53.370;-6.196;2023-02-01T07:32:57;7.20;99.90
35920;DHT22;36160;53.370;-6.196;2023-02-01T07:35:27;7.20;99.90
35920;DHT22;36160;53.370;-6.196;2023-02-01T07:37:52;7.30;99.90
35920;DHT22;36160;53.370;-6.196;2023-02-01T07:40:18;7.20;99.90
35920;DHT22;36160;53.370;-6.196;2023-02-01T07:42:44;7.20;99.90
35920;DHT22;36160;53.370;-6.196;2023-02-01T07:45:09;7.30;99.90
35920;DHT22;36160;53.370;-6.196;2023-02-01T07:47:35;7.30;99.90
35920;DHT22;36160;53.370;-6.196;2023-02-01T07:50:01;7.30;99.90
35920;DHT22;36160;53.370;-6.196;2023-02-01T07:52:29;7.30;99.90
35920;DHT22;36160;53.370;-6.196;2023-02-01T07:54:55;7.30;99.90
35920;DHT22;36160;53.370;-6.196;2023-02-01T07:57:20;7.40;99.90
35920;DHT22;36160;53.370;-6.196;2023-02-01T07:59:46;7.30;99.90
35920;DHT22;36160;53.370;-6.196;2023-02-01T08:02:41;7.40;99.90
35920;DHT22;36160;53.370;-6.196;2023-02-01T08:05:07;7.30;99.90
35920;DHT22;36160;53.370;-6.196;2023-02-01T08:07:33;7.30;99.90
35920;DHT22;36160;53.370;-6.196;2023-02-01T08:09:58;7.30;99.90
35920;DHT22;36160;53.370;-6.196;2023-02-01T08:12:25;7.40;99.90
35920;DHT22;36160;53.370;-6.196;2023-02-01T08:14:52;7.50;99.90
35920;DHT22;36160;53.370;-6.196;2023-02-01T08:17:19;7.40;99.90
35920;DHT22;36160;53.370;-6.196;2023-02-01T08:19:45;7.40;99.90
35920;DHT22;36160;53.370;-6.196;2023-02-01T08:22:10;7.40;99.90
35920;DHT22;36160;53.370;-6.196;2023-02-01T08:24:36;7.40;99.90
35920;DHT22;36160;53.370;-6.196;2023-02-01T08:27:05;7.50;99.90
35920;DHT22;36160;53.370;-6.196;2023-02-01T08:29:30;7.50;99.90
35920;DHT22;36160;53.370;-6.196;2023-02-01T08:31:56;7.50;99.90
35920;DHT22;36160;53.370;-6.196;2023-02-01T08:34:22;7.50;99.90
35920;DHT22;36160;53.370;-6.196;2023-02-01T08:36:48;7.40;99.90
35920;DHT22;36160;53.370;-6.196;2023-02-01T08:39:14;7.50;99.90
35920;DHT22;36160;53.370;-6.196;2023-02-01T08:41:39;7.50;99.90
35920;DHT22;36160;53.370;-6.196;2023-02-01T08:44:07;7.50;99.90
35920;DHT22;36160;53.370;-6.196;2023-02-01T08:46:33;7.70;99.90
35920;DHT22;36160;53.370;-6.196;2023-02-01T08:49:01;7.70;99.90
35920;DHT22;36160;53.370;-6.196;2023-02-01T08:51:27;7.80;99.90
35920;DHT22;36160;53.370;-6.196;2023-02-01T08:53:52;7.80;99.90
35920;DHT22;36160;53.370;-6.196;2023-02-01T08:56:19;7.90;99.90
35920;DHT22;36160;53.370;-6.196;2023-02-01T08:58:45;8.00;99.90
35920;DHT22;36160;53.370;-6.196;2023-02-01T09:01:13;8.10;99.90
35920;DHT22;36160;53.370;-6.196;2023-02-01T09:03:40;8.10;99.90
35920;DHT22;36160;53.370;-6.196;2023-02-01T09:06:08;8.20;99.90
35920;DHT22;36160;53.370;-6.196;2023-02-01T09:08:35;8.20;99.90
35920;DHT22;36160;53.370;-6.196;2023-02-01T09:11:03;8.20;99.90
35920;DHT22;36160;53.370;-6.196;2023-02-01T09:13:29;8.30;99.90
35920;DHT22;36160;53.370;-6.196;2023-02-01T09:15:55;8.30;99.90
35920;DHT22;36160;53.370;-6.196;2023-02-01T09:18:20;8.40;99.90
35920;DHT22;36160;53.370;-6.196;2023-02-01T09:20:46;8.40;99.90
35920;DHT22;36160;53.370;-6.196;2023-02-01T09:23:12;8.40;99.90
35920;DHT22;36160;53.370;-6.196;2023-02-01T09:25:38;8.50;99.90
35920;DHT22;36160;53.370;-6.196;2023-02-01T09:28:04;8.40;99.90
35920;DHT22;36160;53.370;-6.196;2023-02-01T09:30:32;8.50;99.90
35920;DHT22;36160;53.370;-6.196;2023-02-01T09:32:58;8.50;99.90
35920;DHT22;36160;53.370;-6.196;2023-02-01T09:35:24;8.40;99.90
35920;DHT22;36160;53.370;-6.196;2023-02-01T09:37:50;8.50;99.90
35920;DHT22;36160;53.370;-6.196;2023-02-01T09:40:17;8.60;99.90
35920;DHT22;36160;53.370;-6.196;2023-02-01T09:42:56;8.70;99.90
35920;DHT22;36160;53.370;-6.196;2023-02-01T09:48:13;8.70;99.90
35920;DHT22;36160;53.370;-6.196;2023-02-01T09:50:45;8.70;99.90
35920;DHT22;36160;53.370;-6.196;2023-02-01T09:53:23;8.80;99.90
35920;DHT22;36160;53.370;-6.196;2023-02-01T09:55:53;8.80;99.90
35920;DHT22;36160;53.370;-6.196;2023-02-01T09:58:22;8.90;99.90
35920;DHT22;36160;53.370;-6.196;2023-02-01T10:01:00;8.90;99.90
35920;DHT22;36160;53.370;-6.196;2023-02-01T10:03:32;8.90;99.90
35920;DHT22;36160;53.370;-6.196;2023-02-01T10:11:04;9.00;99.90
35920;DHT22;36160;53.370;-6.196;2023-02-01T10:14:10;9.10;99.90
35920;DHT22;36160;53.370;-6.196;2023-02-01T10:16:51;9.10;99.90
35920;DHT22;36160;53.370;-6.196;2023-02-01T10:22:00;9.10;99.90
35920;DHT22;36160;53.370;-6.196;2023-02-01T10:24:40;9.10;99.90
35920;DHT22;36160;53.370;-6.196;2023-02-01T10:29:47;9.20;99.90
35920;DHT22;36160;53.370;-6.196;2023-02-01T10:32:17;9.20;99.90
35920;DHT22;36160;53.370;-6.196;2023-02-01T10:34:50;9.30;99.90
35920;DHT22;36160;53.370;-6.196;2023-02-01T10:37:28;9.20;99.90
35920;DHT22;36160;53.370;-6.196;2023-02-01T10:39:56;9.30;99.90
35920;DHT22;36160;53.370;-6.196;2023-02-01T10:42:26;9.30;99.90
35920;DHT22;36160;53.370;-6.196;2023-02-01T10:44:54;9.30;99.90
35920;DHT22;36160;53.370;-6.196;2023-02-01T10:47:21;9.30;99.90
35920;DHT22;36160;53.370;-6.196;2023-02-01T10:52:35;9.40;99.90
35920;DHT22;36160;53.370;-6.196;2023-02-01T10:55:35;9.50;99.90
35920;DHT22;36160;53.370;-6.196;2023-02-01T10:58:04;9.50;99.90
35920;DHT22;36160;53.370;-6.196;2023-02-01T11:00:47;9.50;99.90
35920;DHT22;36160;53.370;-6.196;2023-02-01T11:05:57;9.50;99.90
35920;DHT22;36160;53.370;-6.196;2023-02-01T11:08:23;9.50;99.90
35920;DHT22;36160;53.370;-6.196;2023-02-01T11:11:00;9.70;99.90
35920;DHT22;36160;53.370;-6.196;2023-02-01T11:13:31;9.70;99.90
35920;DHT22;36160;53.370;-6.196;2023-02-01T11:15:59;9.70;99.90
35920;DHT22;36160;53.370;-6.196;2023-02-01T11:18:30;9.70;99.90
35920;DHT22;36160;53.370;-6.196;2023-02-01T11:20:56;9.60;99.90
35920;DHT22;36160;53.370;-6.196;2023-02-01T11:23:24;9.80;99.90
35920;DHT22;36160;53.370;-6.196;2023-02-01T11:25:59;9.90;99.90
35920;DHT22;36160;53.370;-6.196;2023-02-01T11:28:29;9.90;99.90
35920;DHT22;36160;53.370;-6.196;2023-02-01T11:30:58;9.90;99.90
35920;DHT22;36160;53.370;-6.196;2023-02-01T11:33:31;9.90;99.90
35920;DHT22;36160;53.370;-6.196;2023-02-01T11:36:06;10.00;99.90
35920;DHT22;36160;53.370;-6.196;2023-02-01T11:38:33;10.00;99.90
35920;DHT22;36160;53.370;-6.196;2023-02-01T11:41:13;9.90;99.90
35920;DHT22;36160;53.370;-6.196;2023-02-01T11:43:57;9.90;99.90
35920;DHT22;36160;53.370;-6.196;2023-02-01T11:46:34;9.90;99.90
35920;DHT22;36160;53.370;-6.196;2023-02-01T11:52:01;10.10;99.90
35920;DHT22;36160;53.370;-6.196;2023-02-01T12:03:30;10.30;99.90
35920;DHT22;36160;53.370;-6.196;2023-02-01T12:06:36;10.30;99.90
35920;DHT22;36160;53.370;-6.196;2023-02-01T12:09:15;10.30;99.90
35920;DHT22;36160;53.370;-6.196;2023-02-01T12:14:39;10.50;99.90
35920;DHT22;36160;53.370;-6.196;2023-02-01T12:47:03;10.70;99.90
35920;DHT22;36160;53.370;-6.196;2023-02-01T12:52:38;10.60;99.90
35920;DHT22;36160;53.370;-6.196;2023-02-01T12:55:20;10.70;99.90
35920;DHT22;36160;53.370;-6.196;2023-02-01T12:58:18;10.70;99.90
35920;DHT22;36160;53.370;-6.196;2023-02-01T13:00:59;10.70;99.90
35920;DHT22;36160;53.370;-6.196;2023-02-01T13:03:31;10.80;99.90
35920;DHT22;36160;53.370;-6.196;2023-02-01T13:06:27;10.80;99.90
35920;DHT22;36160;53.370;-6.196;2023-02-01T13:11:38;10.90;99.90
35920;DHT22;36160;53.370;-6.196;2023-02-01T13:16:52;10.80;99.90
35920;DHT22;36160;53.370;-6.196;2023-02-01T13:19:29;10.80;99.90
35920;DHT22;36160;53.370;-6.196;2023-02-01T13:22:00;10.90;99.90
35920;DHT22;36160;53.370;-6.196;2023-02-01T13:24:38;10.80;99.90
35920;DHT22;36160;53.370;-6.196;2023-02-01T13:27:05;10.90;99.90
35920;DHT22;36160;53.370;-6.196;2023-02-01T13:29:33;10.90;99.90
35920;DHT22;36160;53.370;-6.196;2023-02-01T13:37:59;10.90;99.90
35920;DHT22;36160;53.370;-6.196;2023-02-01T13:40:37;11.00;99.90
35920;DHT22;36160;53.370;-6.196;2023-02-01T13:43:26;11.00;99.90
35920;DHT22;36160;53.370;-6.196;2023-02-01T13:45:56;11.10;99.90
35920;DHT22;36160;53.370;-6.196;2023-02-01T13:48:51;11.00;99.90
35920;DHT22;36160;53.370;-6.196;2023-02-01T13:51:35;11.10;99.90
35920;DHT22;36160;53.370;-6.196;2023-02-01T13:54:02;11.20;99.90
35920;DHT22;36160;53.370;-6.196;2023-02-01T13:56:42;11.20;99.90
35920;DHT22;36160;53.370;-6.196;2023-02-01T14:02:45;11.30;94.80
35920;DHT22;36160;53.370;-6.196;2023-02-01T14:21:34;11.10;97.70
35920;DHT22;36160;53.370;-6.196;2023-02-01T14:34:38;10.90;99.40
35920;DHT22;36160;53.370;-6.196;2023-02-01T14:44:47;11.00;99.90
35920;DHT22;36160;53.370;-6.196;2023-02-01T14:50:03;11.00;98.30
35920;DHT22;36160;53.370;-6.196;2023-02-01T14:52:40;11.00;97.00
35920;DHT22;36160;53.370;-6.196;2023-02-01T14:58:35;11.00;85.70
35920;DHT22;36160;53.370;-6.196;2023-02-01T15:01:21;11.10;88.20
35920;DHT22;36160;53.370;-6.196;2023-02-01T15:06:45;11.00;78.30
35920;DHT22;36160;53.370;-6.196;2023-02-01T15:09:24;11.00;78.00
35920;DHT22;36160;53.370;-6.196;2023-02-01T15:14:20;11.00;78.90
35920;DHT22;36160;53.370;-6.196;2023-02-01T15:16:45;11.00;76.50
35920;DHT22;36160;53.370;-6.196;2023-02-01T15:19:20;11.00;76.10
35920;DHT22;36160;53.370;-6.196;2023-02-01T15:21:48;11.00;90.30
35920;DHT22;36160;53.370;-6.196;2023-02-01T15:24:23;10.90;97.40
35920;DHT22;36160;53.370;-6.196;2023-02-01T15:26:50;10.90;98.00
35920;DHT22;36160;53.370;-6.196;2023-02-01T15:29:17;10.90;99.90
35920;DHT22;36160;53.370;-6.196;2023-02-01T15:31:49;10.90;99.90
35920;DHT22;36160;53.370;-6.196;2023-02-01T15:34:15;10.90;99.90
35920;DHT22;36160;53.370;-6.196;2023-02-01T15:36:42;10.90;99.90
35920;DHT22;36160;53.370;-6.196;2023-02-01T15:39:26;10.90;99.90
35920;DHT22;36160;53.370;-6.196;2023-02-01T15:42:00;10.90;99.90
35920;DHT22;36160;53.370;-6.196;2023-02-01T15:44:45;10.80;99.90
35920;DHT22;36160;53.370;-6.196;2023-02-01T15:47:25;10.80;99.90
35920;DHT22;36160;53.370;-6.196;2023-02-01T15:49:55;10.80;99.90
35920;DHT22;36160;53.370;-6.196;2023-02-01T15:52:35;10.80;99.90
35920;DHT22;36160;53.370;-6.196;2023-02-01T15:55:04;10.80;99.90
35920;DHT22;36160;53.370;-6.196;2023-02-01T15:57:36;10.70;99.90
35920;DHT22;36160;53.370;-6.196;2023-02-01T16:00:22;10.70;99.90
35920;DHT22;36160;53.370;-6.196;2023-02-01T16:02:55;10.60;99.90
35920;DHT22;36160;53.370;-6.196;2023-02-01T16:05:38;10.50;99.90
35920;DHT22;36160;53.370;-6.196;2023-02-01T16:08:06;10.50;99.90
35920;DHT22;36160;53.370;-6.196;2023-02-01T16:10:40;10.50;99.90
35920;DHT22;36160;53.370;-6.196;2023-02-01T16:13:06;10.60;99.90
35920;DHT22;36160;53.370;-6.196;2023-02-01T16:15:32;10.50;99.90
35920;DHT22;36160;53.370;-6.196;2023-02-01T16:17:58;10.50;99.90
35920;DHT22;36160;53.370;-6.196;2023-02-01T16:20:24;10.50;99.90
35920;DHT22;36160;53.370;-6.196;2023-02-01T16:22:49;10.50;99.90
35920;DHT22;36160;53.370;-6.196;2023-02-01T16:25:15;10.50;99.90
35920;DHT22;36160;53.370;-6.196;2023-02-01T16:27:41;10.50;99.90
35920;DHT22;36160;53.370;-6.196;2023-02-01T16:30:07;10.40;99.90
35920;DHT22;36160;53.370;-6.196;2023-02-01T16:32:35;10.40;99.90
35920;DHT22;36160;53.370;-6.196;2023-02-01T16:35:13;10.40;99.90
35920;DHT22;36160;53.370;-6.196;2023-02-01T16:37:44;10.40;99.90
35920;DHT22;36160;53.370;-6.196;2023-02-01T16:40:14;10.30;99.90
35920;DHT22;36160;53.370;-6.196;2023-02-01T16:42:40;10.30;99.90
35920;DHT22;36160;53.370;-6.196;2023-02-01T16:45:07;10.30;99.90
35920;DHT22;36160;53.370;-6.196;2023-02-01T16:47:34;10.30;99.90
35920;DHT22;36160;53.370;-6.196;2023-02-01T16:50:02;10.30;99.90
35920;DHT22;36160;53.370;-6.196;2023-02-01T16:52:27;10.30;99.90
35920;DHT22;36160;53.370;-6.196;2023-02-01T16:54:53;10.20;99.90
35920;DHT22;36160;53.370;-6.196;2023-02-01T16:57:20;10.10;99.90
35920;DHT22;36160;53.370;-6.196;2023-02-01T16:59:49;10.10;99.90
35920;DHT22;36160;53.370;-6.196;2023-02-01T17:02:18;10.10;99.90
35920;DHT22;36160;53.370;-6.196;2023-02-01T17:04:47;10.10;99.90
35920;DHT22;36160;53.370;-6.196;2023-02-01T17:07:18;10.00;99.90
35920;DHT22;36160;53.370;-6.196;2023-02-01T17:09:45;10.00;99.90
35920;DHT22;36160;53.370;-6.196;2023-02-01T17:12:25;10.00;99.90
35920;DHT22;36160;53.370;-6.196;2023-02-01T17:14:52;10.00;99.90
35920;DHT22;36160;53.370;-6.196;2023-02-01T17:17:19;10.00;99.90
35920;DHT22;36160;53.370;-6.196;2023-02-01T17:19:48;10.00;99.90
35920;DHT22;36160;53.370;-6.196;2023-02-01T17:22:18;10.00;99.90
35920;DHT22;36160;53.370;-6.196;2023-02-01T17:24:44;10.00;99.90
35920;DHT22;36160;53.370;-6.196;2023-02-01T17:27:10;10.00;99.90
35920;DHT22;36160;53.370;-6.196;2023-02-01T17:29:36;10.00;99.90
35920;DHT22;36160;53.370;-6.196;2023-02-01T17:32:02;10.00;99.90
35920;DHT22;36160;53.370;-6.196;2023-02-01T17:34:28;10.00;99.90
35920;DHT22;36160;53.370;-6.196;2023-02-01T17:36:54;10.00;99.90
35920;DHT22;36160;53.370;-6.196;2023-02-01T17:39:20;10.00;99.90
35920;DHT22;36160;53.370;-6.196;2023-02-01T17:42:07;10.00;99.90
35920;DHT22;36160;53.370;-6.196;2023-02-01T17:44:33;10.00;99.90
35920;DHT22;36160;53.370;-6.196;2023-02-01T17:46:59;9.90;99.90
35920;DHT22;36160;53.370;-6.196;2023-02-01T17:49:25;9.90;99.90
35920;DHT22;36160;53.370;-6.196;2023-02-01T17:51:53;9.90;99.90
35920;DHT22;36160;53.370;-6.196;2023-02-01T17:54:19;9.90;99.90
35920;DHT22;36160;53.370;-6.196;2023-02-01T17:56:45;9.90;99.90
35920;DHT22;36160;53.370;-6.196;2023-02-01T17:59:13;9.80;99.90
35920;DHT22;36160;53.370;-6.196;2023-02-01T18:01:40;9.90;99.90
35920;DHT22;36160;53.370;-6.196;2023-02-01T18:04:08;9.90;99.90
35920;DHT22;36160;53.370;-6.196;2023-02-01T18:06:35;9.80;99.90
35920;DHT22;36160;53.370;-6.196;2023-02-01T18:09:01;9.80;99.90
35920;DHT22;36160;53.370;-6.196;2023-02-01T18:11:27;9.80;99.90